createdAt,value
2019-06-26T00:00:02.675Z,7.85
2019-06-26T00:02:10.982Z,6.72
2019-06-26T00:04:17.453Z,5.78
2019-06-26T00:06:23.913Z,7.37
2019-06-26T00:08:30.348Z,6.70
2019-06-26T00:10:36.787Z,8.85
2019-06-26T00:12:43.574Z,6.47
2019-06-26T00:14:50.090Z,7.15
2019-06-26T00:16:56.469Z,5.75
2019-06-26T00:19:02.854Z,7.85
2019-06-26T00:21:09.464Z,7.65
2019-06-26T00:23:15.867Z,6.00
2019-06-26T00:25:22.294Z,8.73
2019-06-26T00:27:28.728Z,6.80
2019-06-26T00:29:35.248Z,7.22
2019-06-26T00:31:41.668Z,9.18
2019-06-26T00:33:48.113Z,10.28
2019-06-26T00:35:54.660Z,6.40
2019-06-26T00:38:01.041Z,5.60
2019-06-26T00:40:08.396Z,8.15
2019-06-26T00:42:14.810Z,7.12
2019-06-26T00:44:21.212Z,9.80
2019-06-26T00:46:27.761Z,11.68
2019-06-26T00:48:34.191Z,5.83
2019-06-26T00:50:40.561Z,7.25
2019-06-26T00:52:47.135Z,5.17
2019-06-26T00:54:53.693Z,6.05
2019-06-26T00:57:00.153Z,6.05
2019-06-26T00:59:06.550Z,6.28
2019-06-26T01:01:13.039Z,6.58
2019-06-26T01:03:19.532Z,5.92
2019-06-26T01:05:25.907Z,6.12
2019-06-26T01:07:32.339Z,6.78
2019-06-26T01:09:38.842Z,7.37
2019-06-26T01:11:45.865Z,6.62
2019-06-26T01:13:58.020Z,7.85
2019-06-26T01:16:00.393Z,7.78
2019-06-26T01:18:06.955Z,5.92
2019-06-26T01:20:13.862Z,10.98
2019-06-26T01:22:20.289Z,7.97
2019-06-26T01:24:26.660Z,6.50
2019-06-26T01:26:33.111Z,9.00
2019-06-26T01:28:39.490Z,9.80
2019-06-26T01:30:45.884Z,10.23
2019-06-26T01:32:52.438Z,7.30
2019-06-26T01:34:59.936Z,6.37
2019-06-26T01:37:06.382Z,9.83
2019-06-26T01:39:12.836Z,10.20
2019-06-26T01:41:19.388Z,7.87
2019-06-26T01:43:25.825Z,12.15
2019-06-26T01:45:32.282Z,9.53
2019-06-26T01:47:38.890Z,7.45
2019-06-26T01:49:45.361Z,7.97
2019-06-26T01:51:51.878Z,7.05
2019-06-26T01:53:58.341Z,8.95
2019-06-26T01:56:05.018Z,5.97
2019-06-26T01:58:11.413Z,8.15
2019-06-26T02:00:18.891Z,10.60
2019-06-26T02:02:25.590Z,10.55
2019-06-26T02:04:32.068Z,7.15
2019-06-26T02:06:38.435Z,10.80
2019-06-26T02:08:44.909Z,10.18
2019-06-26T02:10:52.504Z,10.45
2019-06-26T02:12:58.982Z,8.25
2019-06-26T02:15:08.032Z,8.78
2019-06-26T02:17:14.664Z,11.55
2019-06-26T02:19:21.318Z,7.37
2019-06-26T02:21:27.851Z,8.80
2019-06-26T02:23:34.279Z,7.40
2019-06-26T02:25:41.746Z,8.60
2019-06-26T02:27:48.137Z,8.70
2019-06-26T02:29:54.553Z,13.48
2019-06-26T02:32:01.043Z,8.20
2019-06-26T02:34:07.614Z,10.18
2019-06-26T02:36:14.093Z,7.65
2019-06-26T02:38:20.546Z,18.37
2019-06-26T02:40:27.168Z,13.35
2019-06-26T02:42:33.870Z,20.05
2019-06-26T02:44:52.953Z,11.68
2019-06-26T02:46:48.601Z,8.15
2019-06-26T02:48:54.983Z,10.50
2019-06-26T02:51:01.395Z,11.48
2019-06-26T02:53:07.880Z,8.33
2019-06-26T02:55:14.489Z,9.00
2019-06-26T02:57:21.010Z,9.90
2019-06-26T02:59:27.399Z,15.90
2019-06-26T03:01:34.035Z,45.40
2019-06-26T03:03:40.472Z,14.78
2019-06-26T03:05:46.855Z,11.15
2019-06-26T03:07:53.298Z,6.53
2019-06-26T03:09:59.710Z,10.03
2019-06-26T03:12:06.287Z,11.65
2019-06-26T03:14:12.692Z,8.45
2019-06-26T03:16:19.149Z,6.85
2019-06-26T03:18:25.589Z,7.33
2019-06-26T03:20:39.442Z,11.53
2019-06-26T03:22:45.878Z,10.60
2019-06-26T03:24:52.248Z,9.88
2019-06-26T03:26:58.705Z,9.15
2019-06-26T03:29:05.300Z,12.37
2019-06-26T03:31:11.821Z,10.60
2019-06-26T03:33:18.240Z,8.95
2019-06-26T03:35:24.735Z,7.42
2019-06-26T03:37:31.173Z,13.48
2019-06-26T03:39:37.548Z,8.68
2019-06-26T03:41:43.971Z,10.43
2019-06-26T03:43:50.392Z,10.90
2019-06-26T03:45:56.802Z,11.35
2019-06-26T03:48:03.216Z,10.00
2019-06-26T03:50:10.400Z,11.97
2019-06-26T03:52:16.806Z,8.20
2019-06-26T03:54:23.305Z,10.30
2019-06-26T03:56:29.839Z,12.28
2019-06-26T03:58:36.251Z,10.43
2019-06-26T04:00:44.654Z,13.58
2019-06-26T04:02:51.167Z,11.22
2019-06-26T04:04:57.579Z,9.25
2019-06-26T04:07:05.537Z,8.53
2019-06-26T04:09:11.947Z,9.30
2019-06-26T04:11:18.377Z,11.97
2019-06-26T04:13:24.829Z,8.35
2019-06-26T04:15:41.872Z,8.58
2019-06-26T04:17:41.524Z,20.23
2019-06-26T04:19:47.939Z,9.43
2019-06-26T04:21:54.375Z,8.13
2019-06-26T04:24:01.025Z,9.95
2019-06-26T04:26:07.684Z,9.03
2019-06-26T04:28:14.127Z,7.12
2019-06-26T04:30:21.979Z,10.58
2019-06-26T04:32:28.414Z,9.33
2019-06-26T04:34:34.880Z,8.85
2019-06-26T04:36:41.371Z,8.60
2019-06-26T04:38:47.756Z,10.98
2019-06-26T04:40:54.198Z,9.13
2019-06-26T04:43:00.679Z,10.03
2019-06-26T04:45:08.858Z,8.10
2019-06-26T04:47:15.477Z,10.88
2019-06-26T04:49:22.025Z,6.92
2019-06-26T04:51:28.575Z,8.50
2019-06-26T04:53:35.067Z,9.40
2019-06-26T04:55:41.444Z,11.57
2019-06-26T04:57:47.855Z,10.63
2019-06-26T04:59:55.451Z,11.25
2019-06-26T05:02:02.002Z,8.45
2019-06-26T05:04:08.473Z,15.20
2019-06-26T05:06:14.888Z,16.02
2019-06-26T05:08:21.317Z,9.50
2019-06-26T05:10:27.730Z,11.00
2019-06-26T05:12:34.230Z,11.97
2019-06-26T05:14:40.644Z,14.28
2019-06-26T05:16:47.563Z,12.35
2019-06-26T05:18:54.032Z,12.35
2019-06-26T05:21:00.601Z,11.55
2019-06-26T05:23:07.063Z,12.05
2019-06-26T05:25:16.486Z,17.23
2019-06-26T05:27:22.955Z,14.40
2019-06-26T05:29:29.414Z,12.93
2019-06-26T05:31:35.938Z,10.48
2019-06-26T05:33:42.356Z,15.13
2019-06-26T05:35:49.003Z,12.25
2019-06-26T05:37:55.376Z,13.40
2019-06-26T05:40:01.829Z,9.98
2019-06-26T05:42:09.544Z,13.22
2019-06-26T05:44:15.930Z,14.45
2019-06-26T05:46:31.040Z,12.35
2019-06-26T05:48:30.466Z,13.20
2019-06-26T05:50:36.915Z,11.75
2019-06-26T05:52:43.407Z,17.07
2019-06-26T05:54:49.769Z,11.30
2019-06-26T05:56:56.223Z,14.55
2019-06-26T05:59:02.733Z,13.85
2019-06-26T06:01:09.463Z,14.40
2019-06-26T06:03:15.943Z,15.50
2019-06-26T06:05:22.389Z,16.15
2019-06-26T06:07:28.793Z,16.67
2019-06-26T06:09:35.252Z,15.38
2019-06-26T06:11:41.724Z,15.60
2019-06-26T06:13:48.142Z,11.10
2019-06-26T06:15:54.578Z,15.85
2019-06-26T06:18:01.027Z,14.98
2019-06-26T06:20:10.031Z,18.77
2019-06-26T06:22:16.593Z,10.63
2019-06-26T06:24:23.003Z,9.90
2019-06-26T06:26:29.379Z,17.85
2019-06-26T06:28:35.792Z,16.62
2019-06-26T06:30:42.238Z,16.95
2019-06-26T06:32:48.748Z,17.73
2019-06-26T06:34:55.647Z,16.15
2019-06-26T06:37:02.267Z,15.15
2019-06-26T06:39:08.728Z,14.18
2019-06-26T06:41:15.121Z,15.72
2019-06-26T06:43:22.758Z,21.93
2019-06-26T06:45:30.716Z,17.75
2019-06-26T06:47:37.192Z,12.05
2019-06-26T06:49:43.651Z,15.63
2019-06-26T06:51:50.720Z,15.83
2019-06-26T06:53:57.151Z,13.88
2019-06-26T06:56:03.565Z,15.20
2019-06-26T06:58:10.014Z,16.32
2019-06-26T07:00:18.636Z,15.00
2019-06-26T07:02:25.075Z,22.27
2019-06-26T07:04:31.566Z,17.15
2019-06-26T07:06:38.264Z,23.15
2019-06-26T07:08:44.931Z,13.60
2019-06-26T07:10:51.342Z,11.50
2019-06-26T07:12:57.877Z,16.60
2019-06-26T07:15:09.314Z,20.77
2019-06-26T07:17:20.359Z,16.77
2019-06-26T07:19:24.209Z,12.63
2019-06-26T07:21:31.836Z,14.73
2019-06-26T07:23:38.321Z,15.75
2019-06-26T07:25:44.772Z,17.10
2019-06-26T07:27:51.285Z,15.00
2019-06-26T07:29:57.699Z,15.30
2019-06-26T07:32:04.198Z,16.67
2019-06-26T07:34:10.593Z,14.37
2019-06-26T07:36:17.049Z,11.73
2019-06-26T07:38:23.979Z,11.40
2019-06-26T07:40:30.413Z,18.32
2019-06-26T07:42:36.790Z,13.80
2019-06-26T07:44:43.185Z,13.75
2019-06-26T07:46:49.579Z,14.33
2019-06-26T07:48:57.636Z,14.23
2019-06-26T07:51:04.371Z,15.10
2019-06-26T07:53:10.871Z,11.55
2019-06-26T07:55:17.705Z,14.00
2019-06-26T07:57:24.487Z,15.63
2019-06-26T07:59:30.903Z,14.20
2019-06-26T08:01:37.314Z,16.63
2019-06-26T08:03:43.721Z,15.15
2019-06-26T08:05:50.181Z,11.20
2019-06-26T08:07:56.660Z,12.37
2019-06-26T08:10:03.352Z,23.57
2019-06-26T08:12:09.732Z,11.90
2019-06-26T08:14:16.301Z,11.08
2019-06-26T08:16:22.808Z,11.28
2019-06-26T08:18:29.335Z,13.50
2019-06-26T08:20:51.600Z,15.93
2019-06-26T08:22:43.893Z,12.63
2019-06-26T08:24:50.366Z,12.03
2019-06-26T08:26:56.770Z,12.25
2019-06-26T08:29:03.195Z,12.83
2019-06-26T08:31:09.595Z,14.53
2019-06-26T08:33:16.210Z,12.60
2019-06-26T08:35:22.693Z,11.60
2019-06-26T08:37:29.154Z,14.53
2019-06-26T08:39:35.565Z,11.37
2019-06-26T08:41:41.935Z,11.33
2019-06-26T08:43:48.398Z,11.70
2019-06-26T08:45:54.868Z,12.07
2019-06-26T08:48:16.803Z,11.53
2019-06-26T08:50:11.333Z,12.37
2019-06-26T08:52:18.810Z,14.75
2019-06-26T08:54:25.251Z,12.80
2019-06-26T08:56:31.694Z,13.80
2019-06-26T08:58:38.114Z,11.22
2019-06-26T09:00:44.641Z,15.68
2019-06-26T09:02:51.158Z,13.48
2019-06-26T09:04:57.540Z,13.08
2019-06-26T09:07:04.046Z,11.73
2019-06-26T09:09:10.561Z,15.68
2019-06-26T09:11:17.050Z,12.13
2019-06-26T09:13:23.470Z,16.85
2019-06-26T09:15:29.913Z,12.85
2019-06-26T09:17:37.186Z,15.88
2019-06-26T09:19:43.607Z,14.07
2019-06-26T09:21:50.458Z,14.60
2019-06-26T09:23:56.881Z,14.83
2019-06-26T09:26:03.424Z,14.40
2019-06-26T09:28:09.951Z,11.78
2019-06-26T09:30:16.839Z,14.53
2019-06-26T09:32:23.343Z,13.93
2019-06-26T09:34:29.757Z,14.87
2019-06-26T09:36:36.233Z,14.73
2019-06-26T09:38:42.756Z,12.65
2019-06-26T09:40:49.151Z,16.95
2019-06-26T09:42:55.552Z,13.70
2019-06-26T09:45:02.108Z,12.45
2019-06-26T09:47:08.826Z,21.73
2019-06-26T09:49:15.266Z,17.45
2019-06-26T09:51:21.737Z,14.55
2019-06-26T09:53:32.497Z,16.10
2019-06-26T09:55:36.520Z,16.48
2019-06-26T09:57:42.902Z,13.88
2019-06-26T09:59:49.298Z,15.18
2019-06-26T10:01:55.706Z,15.72
2019-06-26T10:04:02.126Z,13.95
2019-06-26T10:06:08.641Z,13.98
2019-06-26T10:08:15.036Z,16.77
2019-06-26T10:10:22.797Z,12.95
2019-06-26T10:12:29.261Z,16.27
2019-06-26T10:14:47.429Z,13.72
2019-06-26T10:16:43.860Z,12.35
2019-06-26T10:18:50.412Z,12.03
2019-06-26T10:20:56.827Z,14.50
2019-06-26T10:23:03.280Z,15.45
2019-06-26T10:25:11.787Z,14.07
2019-06-26T10:27:18.508Z,13.95
2019-06-26T10:29:25.248Z,14.53
2019-06-26T10:31:31.638Z,13.65
2019-06-26T10:33:38.124Z,15.63
2019-06-26T10:35:44.618Z,12.98
2019-06-26T10:37:51.915Z,17.05
2019-06-26T10:39:58.340Z,14.80
2019-06-26T10:42:06.061Z,15.43
2019-06-26T10:44:12.651Z,14.70
2019-06-26T10:46:19.211Z,14.53
2019-06-26T10:48:25.646Z,19.17
2019-06-26T10:50:32.086Z,15.85
2019-06-26T10:52:38.543Z,14.60
2019-06-26T10:54:45.044Z,16.82
2019-06-26T10:56:51.680Z,22.73
2019-06-26T10:58:58.151Z,16.40
2019-06-26T11:01:04.761Z,19.27
2019-06-26T11:03:11.140Z,17.15
2019-06-26T11:05:18.505Z,15.98
2019-06-26T11:07:24.886Z,23.57
2019-06-26T11:09:31.307Z,18.50
2019-06-26T11:11:37.884Z,14.07
2019-06-26T11:13:44.350Z,16.35
2019-06-26T11:15:50.754Z,17.25
2019-06-26T11:17:58.396Z,14.58
2019-06-26T11:20:08.933Z,16.52
2019-06-26T11:22:15.334Z,18.23
2019-06-26T11:24:21.723Z,16.30
2019-06-26T11:26:28.136Z,18.45
2019-06-26T11:28:35.495Z,14.18
2019-06-26T11:30:42.012Z,17.10
2019-06-26T11:32:48.450Z,15.23
2019-06-26T11:34:54.952Z,14.65
2019-06-26T11:37:04.070Z,15.00
2019-06-26T11:41:15.313Z,15.78
2019-06-26T11:43:21.730Z,19.07
2019-06-26T11:45:28.455Z,19.02
2019-06-26T11:47:34.903Z,19.80
2019-06-26T11:49:41.338Z,18.37
2019-06-26T11:51:48.522Z,17.15
2019-06-26T11:53:55.043Z,20.40
2019-06-26T11:56:01.443Z,14.95
2019-06-26T11:58:07.897Z,15.03
2019-06-26T12:00:18.140Z,14.65
2019-06-26T12:02:24.762Z,16.85
2019-06-26T12:04:31.843Z,14.73
2019-06-26T12:06:38.450Z,16.10
2019-06-26T12:08:44.919Z,14.65
2019-06-26T12:10:51.361Z,21.77
2019-06-26T12:12:57.767Z,18.50
2019-06-26T12:15:05.257Z,16.15
2019-06-26T12:17:11.668Z,22.15
2019-06-26T12:19:21.018Z,16.77
2019-06-26T12:23:31.715Z,17.48
2019-06-26T12:25:38.455Z,16.70
2019-06-26T12:27:45.150Z,14.73
2019-06-26T12:29:51.535Z,20.40
2019-06-26T12:31:57.944Z,17.67
2019-06-26T12:34:04.545Z,17.82
2019-06-26T12:36:10.991Z,17.17
2019-06-26T12:38:17.445Z,15.85
2019-06-26T12:40:24.052Z,16.67
2019-06-26T12:42:31.714Z,15.00
2019-06-26T12:44:38.104Z,22.65
2019-06-26T12:46:44.558Z,15.45
2019-06-26T12:48:50.958Z,18.12
2019-06-26T12:50:57.583Z,16.62
2019-06-26T12:53:03.986Z,17.27
2019-06-26T12:55:11.060Z,13.62
2019-06-26T12:57:17.457Z,21.20
2019-06-26T12:59:23.842Z,17.10
2019-06-26T13:01:30.316Z,19.25
2019-06-26T13:03:37.883Z,32.73
2019-06-26T13:05:44.363Z,15.93
2019-06-26T13:07:50.742Z,21.00
2019-06-26T13:09:57.191Z,16.00
2019-06-26T13:12:03.633Z,22.65
2019-06-26T13:14:10.689Z,19.27
2019-06-26T13:16:17.172Z,19.10
2019-06-26T13:18:23.599Z,20.20
2019-06-26T13:20:30.095Z,22.40
2019-06-26T13:22:36.647Z,21.57
2019-06-26T13:24:44.210Z,16.67
2019-06-26T13:26:54.326Z,22.50
2019-06-26T13:31:05.728Z,21.10
2019-06-26T13:33:12.289Z,22.98
2019-06-26T13:35:18.769Z,21.15
2019-06-26T13:37:25.331Z,21.42
2019-06-26T13:39:31.859Z,23.22
2019-06-26T13:41:38.377Z,19.70
2019-06-26T13:43:45.965Z,24.92
2019-06-26T13:45:52.481Z,23.95
2019-06-26T13:47:59.050Z,24.67
2019-06-26T13:50:09.115Z,23.60
2019-06-26T13:52:15.504Z,19.20
2019-06-26T13:54:22.081Z,22.75
2019-06-26T13:56:28.532Z,27.65
2019-06-26T13:58:35.117Z,21.52
2019-06-26T14:00:41.556Z,16.23
2019-06-26T14:02:48.137Z,24.40
2019-06-26T14:04:54.734Z,21.05
2019-06-26T14:07:01.257Z,18.02
2019-06-26T14:09:09.281Z,18.85
2019-06-26T14:11:15.820Z,18.70
2019-06-26T14:13:22.250Z,19.98
2019-06-26T14:15:28.799Z,21.12
2019-06-26T14:17:35.320Z,26.68
2019-06-26T14:19:41.851Z,20.70
2019-06-26T14:21:48.263Z,22.90
2019-06-26T14:23:54.764Z,25.08
2019-06-26T14:26:01.337Z,22.80
2019-06-26T14:28:07.904Z,25.32
2019-06-26T14:30:14.931Z,19.77
2019-06-26T14:32:22.387Z,18.50
2019-06-26T14:34:29.921Z,21.37
2019-06-26T14:36:36.576Z,22.25
2019-06-26T14:38:44.335Z,17.62
2019-06-26T14:40:50.889Z,15.15
2019-06-26T14:42:57.394Z,16.70
2019-06-26T14:45:05.419Z,14.65
2019-06-26T14:47:11.989Z,19.02
2019-06-26T14:49:18.629Z,13.58
2019-06-26T14:51:37.786Z,16.20
2019-06-26T14:55:39.004Z,14.10
2019-06-26T14:57:46.678Z,11.25
2019-06-26T14:59:53.128Z,11.55
2019-06-26T15:01:59.578Z,21.10
2019-06-26T15:04:07.702Z,16.57
2019-06-26T15:06:16.939Z,12.23
2019-06-26T15:10:27.958Z,12.98
2019-06-26T15:12:34.575Z,13.80
2019-06-26T15:14:41.037Z,16.90
2019-06-26T15:16:47.455Z,15.80
2019-06-26T15:18:53.907Z,15.32
2019-06-26T15:21:03.813Z,17.30
2019-06-26T15:23:10.374Z,17.23
2019-06-26T15:25:17.779Z,17.67
2019-06-26T15:27:24.317Z,16.12
2019-06-26T15:29:31.945Z,18.20
2019-06-26T15:31:38.432Z,15.08
2019-06-26T15:33:44.958Z,15.88
2019-06-26T15:35:51.565Z,13.35
2019-06-26T15:37:57.988Z,15.13
2019-06-26T15:40:06.375Z,14.38
2019-06-26T15:42:12.762Z,14.93
2019-06-26T15:44:19.255Z,14.28
2019-06-26T15:46:25.811Z,13.95
2019-06-26T15:48:32.251Z,14.70
2019-06-26T15:50:38.668Z,11.03
2019-06-26T15:52:45.102Z,11.83
2019-06-26T15:54:53.122Z,14.23
2019-06-26T15:56:59.485Z,14.75
2019-06-26T15:59:06.001Z,12.98
2019-06-26T16:01:12.485Z,11.40
2019-06-26T16:03:18.931Z,17.80
2019-06-26T16:05:26.558Z,14.13
2019-06-26T16:07:33.568Z,13.08
2019-06-26T16:09:39.997Z,13.85
2019-06-26T16:11:46.486Z,15.48
2019-06-26T16:13:53.009Z,17.17
2019-06-26T16:15:59.690Z,16.62
2019-06-26T16:18:20.940Z,14.30
2019-06-26T16:20:27.447Z,15.10
2019-06-26T16:22:33.937Z,15.05
2019-06-26T16:24:40.373Z,16.32
2019-06-26T16:26:47.287Z,16.17
2019-06-26T16:28:53.799Z,11.97
2019-06-26T16:31:00.273Z,13.85
2019-06-26T16:33:06.774Z,20.50
2019-06-26T16:35:15.457Z,11.95
2019-06-26T16:37:23.132Z,15.30
2019-06-26T16:39:31.226Z,15.40
2019-06-26T16:41:38.181Z,15.13
2019-06-26T16:43:45.804Z,14.43
2019-06-26T16:45:52.327Z,14.63
2019-06-26T16:47:58.776Z,11.43
2019-06-26T16:50:08.581Z,18.37
2019-06-26T16:52:15.027Z,10.70
2019-06-26T16:54:21.443Z,10.85
2019-06-26T16:56:28.005Z,17.45
2019-06-26T16:58:34.655Z,14.70
2019-06-26T17:00:41.069Z,13.55
2019-06-26T17:02:47.872Z,13.30
2019-06-26T17:04:54.421Z,13.85
2019-06-26T17:07:02.328Z,12.45
2019-06-26T17:09:10.480Z,12.78
2019-06-26T17:11:18.675Z,16.50
2019-06-26T17:15:30.892Z,12.82
2019-06-26T17:17:38.751Z,15.95
2019-06-26T17:19:45.203Z,18.82
2019-06-26T17:21:52.101Z,14.90
2019-06-26T17:23:58.618Z,18.15
2019-06-26T17:26:05.234Z,18.25
2019-06-26T17:28:11.692Z,16.15
2019-06-26T17:30:19.306Z,17.40
2019-06-26T17:32:25.920Z,14.95
2019-06-26T17:34:32.582Z,15.68
2019-06-26T17:36:39.166Z,17.37
2019-06-26T17:38:45.646Z,19.82
2019-06-26T17:40:52.135Z,16.65
2019-06-26T17:43:11.925Z,17.05
2019-06-26T17:47:15.880Z,20.57
2019-06-26T17:49:22.344Z,25.55
2019-06-26T17:51:28.886Z,14.55
2019-06-26T17:53:35.497Z,24.18
2019-06-26T17:55:41.894Z,15.68
2019-06-26T17:57:48.437Z,19.85
2019-06-26T17:59:55.215Z,15.13
2019-06-26T18:02:01.843Z,17.90
2019-06-26T18:04:08.476Z,15.55
2019-06-26T18:06:14.969Z,20.40
2019-06-26T18:08:21.377Z,16.00
2019-06-26T18:10:27.995Z,16.02
2019-06-26T18:12:34.430Z,19.87
2019-06-26T18:14:43.176Z,15.45
2019-06-26T18:16:48.931Z,24.20
2019-06-26T18:18:55.389Z,19.70
2019-06-26T18:21:01.822Z,20.15
2019-06-26T18:23:08.675Z,18.00
2019-06-26T18:25:16.702Z,19.20
2019-06-26T18:27:23.500Z,20.25
2019-06-26T18:29:29.986Z,19.30
2019-06-26T18:31:36.582Z,20.10
2019-06-26T18:33:44.367Z,18.87
2019-06-26T18:35:50.978Z,20.23
2019-06-26T18:37:57.600Z,21.55
2019-06-26T18:40:05.076Z,20.37
2019-06-26T18:42:13.155Z,19.17
2019-06-26T18:44:21.531Z,20.27
2019-06-26T18:46:29.929Z,21.80
2019-06-26T18:48:37.554Z,18.65
2019-06-26T18:50:44.071Z,19.40
2019-06-26T18:52:50.447Z,16.25
2019-06-26T18:54:56.897Z,21.55
2019-06-26T18:57:03.287Z,22.50
2019-06-26T18:59:09.686Z,24.90
2019-06-26T19:01:16.190Z,23.15
2019-06-26T19:03:22.600Z,23.07
2019-06-26T19:05:29.100Z,23.57
2019-06-26T19:07:35.511Z,17.80
2019-06-26T19:09:42.065Z,22.48
2019-06-26T19:11:48.455Z,20.62
2019-06-26T19:13:54.834Z,43.40
2019-06-26T19:16:04.347Z,22.00
2019-06-26T19:18:09.394Z,25.57
2019-06-26T19:20:16.649Z,22.40
2019-06-26T19:22:23.115Z,25.32
2019-06-26T19:24:29.564Z,17.70
2019-06-26T19:26:35.968Z,20.23
2019-06-26T19:28:42.343Z,24.12
2019-06-26T19:30:48.823Z,27.90
2019-06-26T19:32:55.347Z,24.63
2019-06-26T19:35:08.193Z,20.72
2019-06-26T19:37:10.026Z,28.15
2019-06-26T19:39:16.474Z,23.18
2019-06-26T19:41:23.026Z,20.75
2019-06-26T19:43:29.412Z,21.33
2019-06-26T19:45:35.802Z,20.72
2019-06-26T19:47:42.238Z,22.37
2019-06-26T19:49:48.612Z,22.98
2019-06-26T19:51:55.143Z,22.17
2019-06-26T19:54:04.714Z,20.62
2019-06-26T19:56:11.067Z,22.75
2019-06-26T19:58:21.315Z,18.32
2019-06-26T20:00:25.712Z,23.02
2019-06-26T20:02:32.233Z,17.92
2019-06-26T20:04:38.863Z,19.42
2019-06-26T20:06:45.285Z,20.12
2019-06-26T20:08:57.187Z,25.43
2019-06-26T20:11:00.239Z,23.00
2019-06-26T20:13:06.965Z,18.90
2019-06-26T20:15:15.251Z,29.32
2019-06-26T20:17:21.739Z,19.62
2019-06-26T20:19:28.216Z,22.02
2019-06-26T20:21:36.401Z,17.25
2019-06-26T20:23:42.902Z,18.85
2019-06-26T20:25:49.288Z,20.35
2019-06-26T20:27:57.132Z,19.35
2019-06-26T20:30:09.380Z,20.70
2019-06-26T20:32:14.066Z,16.27
2019-06-26T20:34:20.491Z,22.25
2019-06-26T20:36:26.956Z,21.55
2019-06-26T20:38:33.412Z,17.98
2019-06-26T20:40:40.070Z,19.50
2019-06-26T20:42:46.548Z,21.57
2019-06-26T20:44:53.293Z,18.12
2019-06-26T20:46:59.714Z,18.60
2019-06-26T20:49:08.749Z,18.73
2019-06-26T20:51:15.245Z,25.50
2019-06-26T20:53:21.673Z,17.52
2019-06-26T20:55:28.112Z,17.95
2019-06-26T20:57:34.539Z,28.20
2019-06-26T20:59:41.558Z,17.82
2019-06-26T21:01:48.055Z,18.05
2019-06-26T21:03:54.490Z,18.32
2019-06-26T21:06:00.922Z,18.75
2019-06-26T21:08:09.022Z,22.45
2019-06-26T21:10:15.711Z,21.75
2019-06-26T21:12:22.121Z,17.10
2019-06-26T21:14:28.604Z,17.52
2019-06-26T21:16:36.819Z,18.23
2019-06-26T21:18:43.247Z,22.77
2019-06-26T21:20:49.711Z,20.50
2019-06-26T21:22:56.502Z,25.88
2019-06-26T21:25:17.435Z,22.87
2019-06-26T21:27:15.380Z,26.97
2019-06-26T21:29:24.973Z,27.05
2019-06-26T21:31:31.606Z,20.65
2019-06-26T21:33:41.299Z,16.37
2019-06-26T21:35:47.745Z,23.92
2019-06-26T21:37:54.422Z,18.55
2019-06-26T21:40:01.023Z,20.48
2019-06-26T21:42:08.675Z,22.30
2019-06-26T21:44:15.200Z,23.55
2019-06-26T21:46:21.611Z,22.85
2019-06-26T21:48:28.281Z,24.15
2019-06-26T21:50:35.891Z,21.17
2019-06-26T21:52:42.360Z,24.25
2019-06-26T21:54:48.814Z,21.70
2019-06-26T21:57:12.760Z,22.35
2019-06-26T21:59:36.844Z,25.30
2019-06-26T22:02:01.215Z,21.50
2019-06-26T22:04:25.476Z,25.02
2019-06-26T22:06:48.724Z,25.77
2019-06-26T22:08:56.880Z,19.87
2019-06-26T22:11:04.710Z,24.53
2019-06-26T22:13:11.416Z,21.65
2019-06-26T22:15:19.076Z,19.17
2019-06-26T22:17:25.946Z,17.65
2019-06-26T22:19:32.679Z,19.00
2019-06-26T22:21:39.541Z,19.75
2019-06-26T22:23:46.016Z,25.30
2019-06-26T22:25:52.528Z,18.35
2019-06-26T22:27:58.928Z,22.65
2019-06-26T22:30:09.299Z,21.07
2019-06-26T22:32:15.871Z,27.48
2019-06-26T22:34:22.378Z,27.73
2019-06-26T22:36:28.751Z,25.80
2019-06-26T22:38:35.196Z,20.37
2019-06-26T22:40:41.703Z,19.02
2019-06-26T22:42:48.098Z,21.05
2019-06-26T22:44:54.546Z,22.40
2019-06-26T22:47:01.041Z,21.52
2019-06-26T22:49:07.692Z,23.25
2019-06-26T22:51:14.138Z,23.57
2019-06-26T22:53:20.642Z,19.65
2019-06-26T22:55:27.028Z,21.17
2019-06-26T22:57:33.506Z,23.25
2019-06-26T22:59:39.893Z,24.87
2019-06-26T23:01:46.397Z,23.40
2019-06-26T23:03:52.881Z,23.55
2019-06-26T23:05:59.264Z,20.77
2019-06-26T23:08:05.883Z,24.87
2019-06-26T23:10:12.807Z,23.12
2019-06-26T23:12:19.315Z,20.90
2019-06-26T23:14:25.747Z,20.43
2019-06-26T23:16:32.179Z,18.75
2019-06-26T23:18:38.674Z,20.70
2019-06-26T23:20:45.115Z,19.42
2019-06-26T23:22:51.819Z,18.30
2019-06-26T23:24:58.345Z,16.87
2019-06-26T23:27:04.914Z,24.05
2019-06-26T23:29:11.366Z,16.42
2019-06-26T23:31:17.778Z,19.45
2019-06-26T23:33:24.292Z,20.15
2019-06-26T23:35:30.736Z,16.82
2019-06-26T23:37:38.294Z,17.07
2019-06-26T23:39:45.028Z,16.45
2019-06-26T23:41:51.423Z,20.80
2019-06-26T23:43:57.812Z,20.35
2019-06-26T23:46:04.698Z,17.98
2019-06-26T23:48:11.128Z,14.10
2019-06-26T23:50:17.957Z,19.55
2019-06-26T23:52:24.396Z,17.17
2019-06-26T23:54:30.829Z,16.27
2019-06-26T23:56:40.772Z,20.25
2019-06-26T23:58:45.366Z,18.60
